sensor_id;sensor_type;location;lat;lon;timestamp;pressure;altitude;pressure_sealevel;temperature;humidity
4598;BME280;62772;48.646;8.906;2024-01-15T00:02:51;95213.56;;;-4.09;100.00
4598;BME280;62772;48.646;8.906;2024-01-15T00:07:51;95213.38;;;-4.03;100.00
4598;BME280;62772;48.646;8.906;2024-01-15T00:12:52;95210.84;;;-3.97;100.00
4598;BME280;62772;48.646;8.906;2024-01-15T00:17:52;95201.91;;;-4.02;100.00
4598;BME280;62772;48.646;8.906;2024-01-15T00:22:52;95196.41;;;-4.05;100.00
4598;BME280;62772;48.646;8.906;2024-01-15T00:27:53;95201.19;;;-3.97;100.00
4598;BME280;62772;48.646;8.906;2024-01-15T00:32:53;95197.97;;;-4.04;100.00
4598;BME280;62772;48.646;8.906;2024-01-15T00:37:54;95181.06;;;-4.02;100.00
4598;BME280;62772;48.646;8.906;2024-01-15T00:42:54;95187.63;;;-3.99;100.00
4598;BME280;62772;48.646;8.906;2024-01-15T00:47:55;95178.75;;;-3.98;100.00
4598;BME280;62772;48.646;8.906;2024-01-15T00:52:56;95170.88;;;-4.03;100.00
4598;BME280;62772;48.646;8.906;2024-01-15T00:57:57;95174.00;;;-4.01;100.00
4598;BME280;62772;48.646;8.906;2024-01-15T01:02:57;95180.09;;;-3.95;100.00
4598;BME280;62772;48.646;8.906;2024-01-15T01:07:58;95184.66;;;-3.80;100.00
4598;BME280;62772;48.646;8.906;2024-01-15T01:12:58;95184.38;;;-3.84;100.00
4598;BME280;62772;48.646;8.906;2024-01-15T01:17:58;95188.88;;;-3.74;100.00
4598;BME280;62772;48.646;8.906;2024-01-15T01:22:59;95186.78;;;-3.77;100.00
4598;BME280;62772;48.646;8.906;2024-01-15T01:28:00;95176.94;;;-3.70;100.00
4598;BME280;62772;48.646;8.906;2024-01-15T01:33:00;95179.06;;;-3.67;100.00
4598;BME280;62772;48.646;8.906;2024-01-15T01:38:00;95182.44;;;-3.67;100.00
4598;BME280;62772;48.646;8.906;2024-01-15T01:43:03;95178.75;;;-3.71;100.00
4598;BME280;62772;48.646;8.906;2024-01-15T01:48:04;95180.31;;;-3.70;100.00
4598;BME280;62772;48.646;8.906;2024-01-15T01:53:05;95171.47;;;-3.69;100.00
4598;BME280;62772;48.646;8.906;2024-01-15T01:58:06;95172.16;;;-3.78;100.00
4598;BME280;62772;48.646;8.906;2024-01-15T02:03:07;95170.38;;;-3.73;100.00
4598;BME280;62772;48.646;8.906;2024-01-15T02:08:08;95165.75;;;-3.66;100.00
4598;BME280;62772;48.646;8.906;2024-01-15T02:13:09;95168.88;;;-3.69;100.00
4598;BME280;62772;48.646;8.906;2024-01-15T02:18:09;95153.91;;;-3.78;100.00
4598;BME280;62772;48.646;8.906;2024-01-15T02:23:12;95147.78;;;-3.62;100.00
4598;BME280;62772;48.646;8.906;2024-01-15T02:28:14;95149.28;;;-3.66;100.00
4598;BME280;62772;48.646;8.906;2024-01-15T02:33:15;95140.41;;;-3.70;100.00
4598;BME280;62772;48.646;8.906;2024-01-15T02:38:15;95139.34;;;-3.69;100.00
4598;BME280;62772;48.646;8.906;2024-01-15T02:43:16;95140.19;;;-3.63;100.00
4598;BME280;62772;48.646;8.906;2024-01-15T02:48:19;95135.69;;;-3.73;100.00
4598;BME280;62772;48.646;8.906;2024-01-15T02:53:19;95132.81;;;-3.72;100.00
4598;BME280;62772;48.646;8.906;2024-01-15T02:58:21;95138.84;;;-3.66;100.00
4598;BME280;62772;48.646;8.906;2024-01-15T03:03:21;95140.41;;;-3.70;100.00
4598;BME280;62772;48.646;8.906;2024-01-15T03:08:22;95129.16;;;-3.71;100.00
4598;BME280;62772;48.646;8.906;2024-01-15T03:13:22;95133.38;;;-3.65;100.00
4598;BME280;62772;48.646;8.906;2024-01-15T03:18:23;95138.72;;;-3.54;100.00
4598;BME280;62772;48.646;8.906;2024-01-15T03:23:23;95151.34;;;-3.41;100.00
4598;BME280;62772;48.646;8.906;2024-01-15T03:28:24;95161.25;;;-3.43;100.00
4598;BME280;62772;48.646;8.906;2024-01-15T03:33:24;95167.84;;;-3.35;100.00
4598;BME280;62772;48.646;8.906;2024-01-15T03:38:28;95163.91;;;-3.33;100.00
4598;BME280;62772;48.646;8.906;2024-01-15T03:43:28;95160.78;;;-3.35;100.00
4598;BME280;62772;48.646;8.906;2024-01-15T03:48:29;95167.59;;;-3.34;100.00
4598;BME280;62772;48.646;8.906;2024-01-15T03:53:30;95156.41;;;-3.29;100.00
4598;BME280;62772;48.646;8.906;2024-01-15T03:58:31;95156.72;;;-3.20;100.00
4598;BME280;62772;48.646;8.906;2024-01-15T04:03:31;95154.88;;;-3.20;100.00
4598;BME280;62772;48.646;8.906;2024-01-15T04:08:32;95153.06;;;-3.19;100.00
4598;BME280;62772;48.646;8.906;2024-01-15T04:13:32;95144.72;;;-3.16;100.00
4598;BME280;62772;48.646;8.906;2024-01-15T04:18:33;95140.78;;;-3.19;100.00
4598;BME280;62772;48.646;8.906;2024-01-15T04:23:34;95131.63;;;-3.21;100.00
4598;BME280;62772;48.646;8.906;2024-01-15T04:28:34;95134.69;;;-3.30;100.00
4598;BME280;62772;48.646;8.906;2024-01-15T04:33:34;95127.91;;;-3.31;100.00
4598;BME280;62772;48.646;8.906;2024-01-15T04:38:35;95128.25;;;-3.17;100.00
4598;BME280;62772;48.646;8.906;2024-01-15T04:43:36;95125.88;;;-3.23;100.00
4598;BME280;62772;48.646;8.906;2024-01-15T04:48:37;95115.69;;;-3.20;100.00
4598;BME280;62772;48.646;8.906;2024-01-15T04:53:37;95102.91;;;-3.21;100.00
4598;BME280;62772;48.646;8.906;2024-01-15T04:58:37;95113.06;;;-3.25;100.00
4598;BME280;62772;48.646;8.906;2024-01-15T05:03:38;95114.66;;;-3.19;100.00
4598;BME280;62772;48.646;8.906;2024-01-15T05:08:39;95126.94;;;-3.19;100.00
4598;BME280;62772;48.646;8.906;2024-01-15T05:13:39;95130.28;;;-3.29;100.00
4598;BME280;62772;48.646;8.906;2024-01-15T05:18:40;95124.38;;;-3.14;100.00
4598;BME280;62772;48.646;8.906;2024-01-15T05:23:41;95119.16;;;-3.09;100.00
4598;BME280;62772;48.646;8.906;2024-01-15T05:28:41;95115.50;;;-3.13;100.00
4598;BME280;62772;48.646;8.906;2024-01-15T05:33:43;95120.22;;;-3.10;100.00
4598;BME280;62772;48.646;8.906;2024-01-15T05:38:43;95115.25;;;-3.12;100.00
4598;BME280;62772;48.646;8.906;2024-01-15T05:43:43;95113.13;;;-3.15;100.00
4598;BME280;62772;48.646;8.906;2024-01-15T05:48:44;95099.03;;;-3.14;100.00
4598;BME280;62772;48.646;8.906;2024-01-15T05:53:44;95103.50;;;-3.09;100.00
4598;BME280;62772;48.646;8.906;2024-01-15T05:58:45;95100.28;;;-3.21;100.00
4598;BME280;62772;48.646;8.906;2024-01-15T06:03:45;95097.50;;;-3.10;100.00
4598;BME280;62772;48.646;8.906;2024-01-15T06:08:46;95101.72;;;-3.03;100.00
4598;BME280;62772;48.646;8.906;2024-01-15T06:13:46;95096.72;;;-3.10;100.00
4598;BME280;62772;48.646;8.906;2024-01-15T06:18:47;95102.19;;;-3.12;100.00
4598;BME280;62772;48.646;8.906;2024-01-15T06:23:47;95102.75;;;-2.99;100.00
4598;BME280;62772;48.646;8.906;2024-01-15T06:28:48;95093.91;;;-2.98;100.00
4598;BME280;62772;48.646;8.906;2024-01-15T06:33:48;95089.94;;;-3.01;100.00
4598;BME280;62772;48.646;8.906;2024-01-15T06:38:49;95081.81;;;-3.10;100.00
4598;BME280;62772;48.646;8.906;2024-01-15T06:43:49;95081.59;;;-2.98;100.00
4598;BME280;62772;48.646;8.906;2024-01-15T06:48:49;95053.94;;;-2.94;100.00
4598;BME280;62772;48.646;8.906;2024-01-15T06:53:50;95048.34;;;-3.18;100.00
4598;BME280;62772;48.646;8.906;2024-01-15T06:58:51;95061.47;;;-3.02;100.00
4598;BME280;62772;48.646;8.906;2024-01-15T07:03:51;95056.50;;;-3.04;100.00
4598;BME280;62772;48.646;8.906;2024-01-15T07:08:52;95043.97;;;-3.07;100.00
4598;BME280;62772;48.646;8.906;2024-01-15T07:13:52;95049.22;;;-2.97;100.00
4598;BME280;62772;48.646;8.906;2024-01-15T07:18:53;95059.16;;;-2.99;100.00
4598;BME280;62772;48.646;8.906;2024-01-15T07:23:53;95059.16;;;-2.99;100.00
4598;BME280;62772;48.646;8.906;2024-01-15T07:28:53;95056.53;;;-2.99;100.00
4598;BME280;62772;48.646;8.906;2024-01-15T07:33:54;95045.53;;;-3.01;100.00
4598;BME280;62772;48.646;8.906;2024-01-15T07:38:54;95054.94;;;-3.10;100.00
4598;BME280;62772;48.646;8.906;2024-01-15T07:43:55;95043.44;;;-3.04;100.00
4598;BME280;62772;48.646;8.906;2024-01-15T07:48:55;95052.31;;;-3.10;100.00
4598;BME280;62772;48.646;8.906;2024-01-15T07:53:58;95052.09;;;-2.98;100.00
4598;BME280;62772;48.646;8.906;2024-01-15T07:58:59;95049.75;;;-2.95;100.00
4598;BME280;62772;48.646;8.906;2024-01-15T08:03:59;95052.09;;;-2.93;100.00
4598;BME280;62772;48.646;8.906;2024-01-15T08:09:00;95055.56;;;-2.82;100.00
4598;BME280;62772;48.646;8.906;2024-01-15T08:14:00;95047.78;;;-2.67;100.00
4598;BME280;62772;48.646;8.906;2024-01-15T08:19:01;95045.69;;;-2.65;100.00
4598;BME280;62772;48.646;8.906;2024-01-15T08:24:02;95067.88;;;-2.67;100.00
4598;BME280;62772;48.646;8.906;2024-01-15T08:29:03;95060.88;;;-2.57;100.00
4598;BME280;62772;48.646;8.906;2024-01-15T08:34:03;95054.34;;;-2.54;100.00
4598;BME280;62772;48.646;8.906;2024-01-15T08:39:05;95057.47;;;-2.52;100.00
4598;BME280;62772;48.646;8.906;2024-01-15T08:44:05;95042.63;;;-2.41;100.00
4598;BME280;62772;48.646;8.906;2024-01-15T08:49:06;95058.31;;;-2.41;100.00
4598;BME280;62772;48.646;8.906;2024-01-15T08:54:06;95061.69;;;-2.35;100.00
4598;BME280;62772;48.646;8.906;2024-01-15T08:59:08;95047.88;;;-2.26;100.00
4598;BME280;62772;48.646;8.906;2024-01-15T09:04:09;95049.94;;;-2.28;100.00
4598;BME280;62772;48.646;8.906;2024-01-15T09:09:09;95041.59;;;-2.30;100.00
4598;BME280;62772;48.646;8.906;2024-01-15T09:14:10;95035.84;;;-2.32;100.00
4598;BME280;62772;48.646;8.906;2024-01-15T09:19:11;95039.78;;;-2.14;100.00
4598;BME280;62772;48.646;8.906;2024-01-15T09:24:11;95045.78;;;-2.19;100.00
4598;BME280;62772;48.646;8.906;2024-01-15T09:29:11;95029.31;;;-2.19;100.00
4598;BME280;62772;48.646;8.906;2024-01-15T09:34:12;95022.00;;;-2.02;100.00
4598;BME280;62772;48.646;8.906;2024-01-15T09:39:12;95007.63;;;-1.94;100.00
4598;BME280;62772;48.646;8.906;2024-01-15T09:44:13;95010.25;;;-1.94;100.00
4598;BME280;62772;48.646;8.906;2024-01-15T09:49:15;95020.16;;;-1.80;100.00
4598;BME280;62772;48.646;8.906;2024-01-15T09:54:16;95026.19;;;-1.75;100.00
4598;BME280;62772;48.646;8.906;2024-01-15T09:59:18;95027.22;;;-1.76;100.00
4598;BME280;62772;48.646;8.906;2024-01-15T10:04:19;95011.00;;;-1.68;100.00
4598;BME280;62772;48.646;8.906;2024-01-15T10:09:19;95006.00;;;-1.69;100.00
4598;BME280;62772;48.646;8.906;2024-01-15T10:14:20;94992.69;;;-1.73;100.00
4598;BME280;62772;48.646;8.906;2024-01-15T10:19:20;94989.03;;;-1.72;100.00
4598;BME280;62772;48.646;8.906;2024-01-15T10:24:20;94982.72;;;-1.60;100.00
4598;BME280;62772;48.646;8.906;2024-01-15T10:29:21;94978.25;;;-1.60;100.00
4598;BME280;62772;48.646;8.906;2024-01-15T10:34:21;94988.72;;;-1.60;100.00
4598;BME280;62772;48.646;8.906;2024-01-15T10:39:22;94984.53;;;-1.51;100.00
4598;BME280;62772;48.646;8.906;2024-01-15T10:44:23;94975.13;;;-1.57;100.00
4598;BME280;62772;48.646;8.906;2024-01-15T10:49:24;94977.47;;;-1.55;100.00
4598;BME280;62772;48.646;8.906;2024-01-15T10:54:27;94982.69;;;-1.50;100.00
4598;BME280;62772;48.646;8.906;2024-01-15T10:59:27;94971.66;;;-1.42;100.00
4598;BME280;62772;48.646;8.906;2024-01-15T11:04:31;94974.31;;;-1.52;100.00
4598;BME280;62772;48.646;8.906;2024-01-15T11:09:32;94974.84;;;-1.50;100.00
4598;BME280;62772;48.646;8.906;2024-01-15T11:14:46;94950.97;;;-1.38;100.00
4598;BME280;62772;48.646;8.906;2024-01-15T11:19:48;94940.53;;;-1.49;100.00
4598;BME280;62772;48.646;8.906;2024-01-15T11:24:53;94923.75;;;-1.53;100.00
4598;BME280;62772;48.646;8.906;2024-01-15T11:30:03;94937.63;;;-1.47;100.00
4598;BME280;62772;48.646;8.906;2024-01-15T11:35:05;94953.88;;;-1.50;100.00
4598;BME280;62772;48.646;8.906;2024-01-15T11:40:06;94952.31;;;-1.56;100.00
4598;BME280;62772;48.646;8.906;2024-01-15T11:45:11;94950.47;;;-1.46;100.00
4598;BME280;62772;48.646;8.906;2024-01-15T11:50:12;94942.91;;;-1.62;100.00
4598;BME280;62772;48.646;8.906;2024-01-15T11:55:35;94953.16;;;-1.82;100.00
4598;BME280;62772;48.646;8.906;2024-01-15T12:05:43;94952.16;;;-2.06;100.00
4598;BME280;62772;48.646;8.906;2024-01-15T12:10:43;94939.06;;;-1.91;100.00
4598;BME280;62772;48.646;8.906;2024-01-15T12:15:45;94951.59;;;-1.83;100.00
4598;BME280;62772;48.646;8.906;2024-01-15T12:20:46;94944.50;;;-1.77;100.00
4598;BME280;62772;48.646;8.906;2024-01-15T12:25:47;94938.81;;;-1.89;100.00
4598;BME280;62772;48.646;8.906;2024-01-15T12:30:47;94939.84;;;-1.90;100.00
4598;BME280;62772;48.646;8.906;2024-01-15T12:35:54;94949.22;;;-1.74;100.00
4598;BME280;62772;48.646;8.906;2024-01-15T12:40:54;94954.75;;;-1.91;100.00
4598;BME280;62772;48.646;8.906;2024-01-15T12:45:55;94952.66;;;-1.94;100.00
4598;BME280;62772;48.646;8.906;2024-01-15T12:50:55;94962.59;;;-1.91;100.00
4598;BME280;62772;48.646;8.906;2024-01-15T12:55:57;94956.59;;;-2.07;100.00
4598;BME280;62772;48.646;8.906;2024-01-15T13:00:57;94950.81;;;-2.04;100.00
4598;BME280;62772;48.646;8.906;2024-01-15T13:05:58;94947.69;;;-2.01;100.00
4598;BME280;62772;48.646;8.906;2024-01-15T13:10:59;94963.91;;;-1.88;100.00
4598;BME280;62772;48.646;8.906;2024-01-15T13:15:59;94967.84;;;-1.91;100.00
4598;BME280;62772;48.646;8.906;2024-01-15T13:21:00;94965.50;;;-1.92;100.00
4598;BME280;62772;48.646;8.906;2024-01-15T13:26:03;94965.22;;;-1.86;100.00
4598;BME280;62772;48.646;8.906;2024-01-15T13:31:03;94961.75;;;-1.55;100.00
4598;BME280;62772;48.646;8.906;2024-01-15T13:36:04;94966.50;;;-1.83;100.00
4598;BME280;62772;48.646;8.906;2024-01-15T13:41:08;94967.53;;;-1.63;100.00
4598;BME280;62772;48.646;8.906;2024-01-15T13:46:08;94974.09;;;-1.71;100.00
4598;BME280;62772;48.646;8.906;2024-01-15T13:51:10;94968.56;;;-1.54;100.00
4598;BME280;62772;48.646;8.906;2024-01-15T13:56:11;94975.13;;;-1.57;100.00
4598;BME280;62772;48.646;8.906;2024-01-15T14:01:12;94989.75;;;-1.46;100.00
4598;BME280;62772;48.646;8.906;2024-01-15T14:06:13;94994.22;;;-1.56;100.00
4598;BME280;62772;48.646;8.906;2024-01-15T14:11:13;94992.13;;;-1.54;100.00
4598;BME280;62772;48.646;8.906;2024-01-15T14:16:14;94998.44;;;-1.71;100.00
4598;BME280;62772;48.646;8.906;2024-01-15T14:21:14;95013.38;;;-1.97;100.00
4598;BME280;62772;48.646;8.906;2024-01-15T14:26:15;95023.56;;;-1.85;100.00
4598;BME280;62772;48.646;8.906;2024-01-15T14:31:15;95045.03;;;-1.88;100.00
4598;BME280;62772;48.646;8.906;2024-01-15T14:36:16;95051.31;;;-2.05;100.00
4598;BME280;62772;48.646;8.906;2024-01-15T14:41:16;95058.59;;;-2.27;100.00
4598;BME280;62772;48.646;8.906;2024-01-15T14:46:17;95067.50;;;-2.18;100.00
4598;BME280;62772;48.646;8.906;2024-01-15T14:51:17;95072.72;;;-2.23;100.00
4598;BME280;62772;48.646;8.906;2024-01-15T14:56:18;95084.50;;;-2.21;100.00
4598;BME280;62772;48.646;8.906;2024-01-15T15:01:19;95092.63;;;-2.17;100.00
4598;BME280;62772;48.646;8.906;2024-01-15T15:06:19;95108.81;;;-2.25;100.00
4598;BME280;62772;48.646;8.906;2024-01-15T15:11:21;95108.25;;;-2.32;100.00
4598;BME280;62772;48.646;8.906;2024-01-15T15:16:23;95118.72;;;-2.32;100.00
4598;BME280;62772;48.646;8.906;2024-01-15T15:21:23;95134.69;;;-2.29;100.00
4598;BME280;62772;48.646;8.906;2024-01-15T15:26:24;95146.38;;;-2.47;100.00
4598;BME280;62772;48.646;8.906;2024-01-15T15:31:24;95155.50;;;-2.55;100.00
4598;BME280;62772;48.646;8.906;2024-01-15T15:36:25;95153.97;;;-2.50;100.00
4598;BME280;62772;48.646;8.906;2024-01-15T15:41:25;95165.19;;;-2.55;100.00
4598;BME280;62772;48.646;8.906;2024-01-15T15:46:26;95162.28;;;-2.59;100.00
4598;BME280;62772;48.646;8.906;2024-01-15T15:51:26;95175.63;;;-2.60;100.00
4598;BME280;62772;48.646;8.906;2024-01-15T15:56:27;95199.06;;;-2.70;100.00
4598;BME280;62772;48.646;8.906;2024-01-15T16:01:27;95205.38;;;-2.66;100.00
4598;BME280;62772;48.646;8.906;2024-01-15T16:06:28;95214.50;;;-2.69;100.00
4598;BME280;62772;48.646;8.906;2024-01-15T16:11:28;95220.19;;;-2.77;100.00
4598;BME280;62772;48.646;8.906;2024-01-15T16:16:29;95216.78;;;-2.83;100.00
4598;BME280;62772;48.646;8.906;2024-01-15T16:21:29;95220.94;;;-2.82;100.00
4598;BME280;62772;48.646;8.906;2024-01-15T16:26:30;95218.81;;;-2.90;100.00
4598;BME280;62772;48.646;8.906;2024-01-15T16:31:30;95225.03;;;-2.96;100.00
4598;BME280;62772;48.646;8.906;2024-01-15T16:36:32;95222.78;;;-2.82;100.00
4598;BME280;62772;48.646;8.906;2024-01-15T16:41:32;95222.25;;;-2.89;100.00
4598;BME280;62772;48.646;8.906;2024-01-15T16:46:33;95235.97;;;-2.67;100.00
4598;BME280;62772;48.646;8.906;2024-01-15T16:51:33;95239.59;;;-3.05;100.00
4598;BME280;62772;48.646;8.906;2024-01-15T16:56:34;95250.31;;;-3.07;100.00
4598;BME280;62772;48.646;8.906;2024-01-15T17:01:34;95256.44;;;-2.91;100.00
4598;BME280;62772;48.646;8.906;2024-01-15T17:06:35;95267.94;;;-2.92;100.00
4598;BME280;62772;48.646;8.906;2024-01-15T17:11:35;95264.53;;;-2.93;100.00
4598;BME280;62772;48.646;8.906;2024-01-15T17:16:36;95278.78;;;-2.73;100.00
4598;BME280;62772;48.646;8.906;2024-01-15T17:21:36;95279.41;;;-2.93;100.00
4598;BME280;62772;48.646;8.906;2024-01-15T17:26:37;95296.06;;;-2.72;100.00
4598;BME280;62772;48.646;8.906;2024-01-15T17:31:37;95300.34;;;-2.56;100.00
4598;BME280;62772;48.646;8.906;2024-01-15T17:36:38;95307.16;;;-2.87;100.00
4598;BME280;62772;48.646;8.906;2024-01-15T17:41:39;95325.16;;;-2.90;100.00
4598;BME280;62772;48.646;8.906;2024-01-15T17:46:40;95324.13;;;-2.89;100.00
4598;BME280;62772;48.646;8.906;2024-01-15T17:51:40;95339.38;;;-2.76;100.00
4598;BME280;62772;48.646;8.906;2024-01-15T17:56:41;95346.59;;;-3.16;100.00
4598;BME280;62772;48.646;8.906;2024-01-15T18:01:41;95344.75;;;-2.88;100.00
4598;BME280;62772;48.646;8.906;2024-01-15T18:06:43;95361.84;;;-3.07;100.00
4598;BME280;62772;48.646;8.906;2024-01-15T18:11:44;95368.41;;;-2.72;100.00
4598;BME280;62772;48.646;8.906;2024-01-15T18:16:44;95365.97;;;-2.84;100.00
4598;BME280;62772;48.646;8.906;2024-01-15T18:21:48;95377.59;;;-3.24;100.00
4598;BME280;62772;48.646;8.906;2024-01-15T18:26:50;95387.88;;;-2.90;100.00
4598;BME280;62772;48.646;8.906;2024-01-15T18:31:52;95399.34;;;-2.92;100.00
4598;BME280;62772;48.646;8.906;2024-01-15T18:36:53;95410.72;;;-3.03;100.00
4598;BME280;62772;48.646;8.906;2024-01-15T18:41:54;95421.31;;;-3.15;100.00
4598;BME280;62772;48.646;8.906;2024-01-15T18:46:55;95418.81;;;-3.26;100.00
4598;BME280;62772;48.646;8.906;2024-01-15T18:51:56;95424.22;;;-3.11;100.00
4598;BME280;62772;48.646;8.906;2024-01-15T18:56:58;95434.84;;;-2.96;100.00
4598;BME280;62772;48.646;8.906;2024-01-15T19:01:58;95434.91;;;-3.13;100.00
4598;BME280;62772;48.646;8.906;2024-01-15T19:06:59;95442.28;;;-3.10;100.00
4598;BME280;62772;48.646;8.906;2024-01-15T19:11:59;95456.03;;;-2.92;100.00
4598;BME280;62772;48.646;8.906;2024-01-15T19:17:00;95464.38;;;-3.39;100.00
4598;BME280;62772;48.646;8.906;2024-01-15T19:22:02;95459.81;;;-3.05;100.00
4598;BME280;62772;48.646;8.906;2024-01-15T19:27:03;95457.75;;;-3.03;100.00
4598;BME280;62772;48.646;8.906;2024-01-15T19:32:04;95462.09;;;-2.86;100.00
4598;BME280;62772;48.646;8.906;2024-01-15T19:37:04;95455.75;;;-2.96;100.00
4598;BME280;62772;48.646;8.906;2024-01-15T19:42:05;95456.38;;;-2.83;100.00
4598;BME280;62772;48.646;8.906;2024-01-15T19:47:05;95459.81;;;-3.05;100.00
4598;BME280;62772;48.646;8.906;2024-01-15T19:52:06;95469.22;;;-2.82;100.00
4598;BME280;62772;48.646;8.906;2024-01-15T19:57:06;95473.22;;;-2.96;100.00
4598;BME280;62772;48.646;8.906;2024-01-15T20:02:07;95482.41;;;-3.16;100.00
4598;BME280;62772;48.646;8.906;2024-01-15T20:07:07;95482.94;;;-2.92;100.00
4598;BME280;62772;48.646;8.906;2024-01-15T20:12:08;95486.38;;;-2.91;100.00
4598;BME280;62772;48.646;8.906;2024-01-15T20:17:09;95501.25;;;-2.92;100.00
4598;BME280;62772;48.646;8.906;2024-01-15T20:22:09;95512.22;;;-2.67;100.00
4598;BME280;62772;48.646;8.906;2024-01-15T20:27:10;95503.31;;;-2.71;100.00
4598;BME280;62772;48.646;8.906;2024-01-15T20:32:10;95510.00;;;-2.81;100.00
4598;BME280;62772;48.646;8.906;2024-01-15T20:37:12;95522.28;;;-3.03;100.00
4598;BME280;62772;48.646;8.906;2024-01-15T20:42:12;95522.34;;;-2.98;100.00
4598;BME280;62772;48.646;8.906;2024-01-15T20:47:13;95534.91;;;-3.17;100.00
4598;BME280;62772;48.646;8.906;2024-01-15T20:52:14;95532.56;;;-3.36;100.00
4598;BME280;62772;48.646;8.906;2024-01-15T20:57:15;95533.72;;;-3.26;100.00
4598;BME280;62772;48.646;8.906;2024-01-15T21:02:15;95532.13;;;-3.50;100.00
4598;BME280;62772;48.646;8.906;2024-01-15T21:07:18;95528.78;;;-3.45;100.00
4598;BME280;62772;48.646;8.906;2024-01-15T21:12:19;95527.69;;;-3.66;100.00
4598;BME280;62772;48.646;8.906;2024-01-15T21:17:19;95532.44;;;-3.63;100.00
4598;BME280;62772;48.646;8.906;2024-01-15T21:22:20;95536.81;;;-3.69;100.00
4598;BME280;62772;48.646;8.906;2024-01-15T21:27:20;95535.91;;;-3.74;100.00
4598;BME280;62772;48.646;8.906;2024-01-15T21:32:21;95536.94;;;-3.58;100.00
4598;BME280;62772;48.646;8.906;2024-01-15T21:37:22;95544.41;;;-3.67;100.00
4598;BME280;62772;48.646;8.906;2024-01-15T21:42:23;95550.56;;;-3.73;100.00
4598;BME280;62772;48.646;8.906;2024-01-15T21:47:23;95562.03;;;-3.91;100.00
4598;BME280;62772;48.646;8.906;2024-01-15T21:52:26;95566.50;;;-4.04;100.00
4598;BME280;62772;48.646;8.906;2024-01-15T21:57:26;95566.50;;;-4.04;100.00
4598;BME280;62772;48.646;8.906;2024-01-15T22:02:27;95568.16;;;-4.14;100.00
4598;BME280;62772;48.646;8.906;2024-01-15T22:07:29;95570.28;;;-4.11;100.00
4598;BME280;62772;48.646;8.906;2024-01-15T22:12:30;95566.59;;;-3.98;100.00
4598;BME280;62772;48.646;8.906;2024-01-15T22:17:30;95573.28;;;-4.20;100.00
4598;BME280;62772;48.646;8.906;2024-01-15T22:22:31;95578.97;;;-4.06;100.00
4598;BME280;62772;48.646;8.906;2024-01-15T22:27:34;95588.41;;;-4.05;100.00
4598;BME280;62772;48.646;8.906;2024-01-15T22:32:34;95588.19;;;-3.69;100.00
4598;BME280;62772;48.646;8.906;2024-01-15T22:37:34;95592.69;;;-3.98;100.00
4598;BME280;62772;48.646;8.906;2024-01-15T22:42:36;95602.56;;;-4.01;100.00
4598;BME280;62772;48.646;8.906;2024-01-15T22:47:36;95609.78;;;-3.57;100.00
4598;BME280;62772;48.646;8.906;2024-01-15T22:52:37;95612.22;;;-3.84;100.00
4598;BME280;62772;48.646;8.906;2024-01-15T22:57:39;95614.44;;;-3.93;100.00
4598;BME280;62772;48.646;8.906;2024-01-15T23:02:39;95627.38;;;-3.98;100.00
4598;BME280;62772;48.646;8.906;2024-01-15T23:07:40;95630.03;;;-4.10;100.00
4598;BME280;62772;48.646;8.906;2024-01-15T23:12:41;95636.56;;;-3.95;100.00
4598;BME280;62772;48.646;8.906;2024-01-15T23:17:41;95636.78;;;-3.97;100.00
4598;BME280;62772;48.646;8.906;2024-01-15T23:22:44;95641.06;;;-3.91;100.00
4598;BME280;62772;48.646;8.906;2024-01-15T23:27:44;95641.09;;;-4.03;100.00
4598;BME280;62772;48.646;8.906;2024-01-15T23:32:45;95649.50;;;-4.01;100.00
4598;BME280;62772;48.646;8.906;2024-01-15T23:37:46;95640.59;;;-3.88;100.00
4598;BME280;62772;48.646;8.906;2024-01-15T23:42:47;95650.41;;;-3.78;100.00
4598;BME280;62772;48.646;8.906;2024-01-15T23:47:47;95654.47;;;-3.70;100.00
4598;BME280;62772;48.646;8.906;2024-01-15T23:52:48;95661.38;;;-3.64;100.00
4598;BME280;62772;48.646;8.906;2024-01-15T23:57:48;95667.38;;;-3.63;100.00
